createdAt,value
2023-05-19T00:01:00.572Z,14.70
2023-05-19T00:03:28.157Z,15.43
2023-05-19T00:05:57.381Z,17.88
2023-05-19T00:08:24.949Z,16.73
2023-05-19T00:10:52.314Z,17.63
2023-05-19T00:13:19.835Z,17.35
2023-05-19T00:15:47.403Z,21.85
2023-05-19T00:18:14.613Z,17.13
2023-05-19T00:20:41.760Z,17.52
2023-05-19T00:23:09.075Z,16.48
2023-05-19T00:25:36.278Z,15.85
2023-05-19T00:28:03.718Z,18.60
2023-05-19T00:30:32.423Z,15.75
2023-05-19T00:33:02.681Z,17.45
2023-05-19T00:35:29.811Z,19.00
2023-05-19T00:37:57.217Z,15.98
2023-05-19T00:40:25.753Z,20.58
2023-05-19T00:42:52.815Z,18.25
2023-05-19T00:45:19.967Z,19.00
2023-05-19T00:47:47.072Z,15.77
2023-05-19T00:50:14.121Z,22.35
2023-05-19T00:52:41.178Z,13.90
2023-05-19T00:55:09.827Z,20.95
2023-05-19T00:57:38.400Z,21.10
2023-05-19T01:00:07.131Z,18.33
2023-05-19T01:02:35.093Z,19.65
2023-05-19T01:05:02.877Z,18.80
2023-05-19T01:07:30.454Z,15.93
2023-05-19T01:09:58.053Z,18.67
2023-05-19T01:12:26.549Z,18.85
2023-05-19T01:14:53.689Z,18.10
2023-05-19T01:17:35.991Z,18.98
2023-05-19T01:20:22.745Z,20.23
2023-05-19T01:23:36.706Z,17.63
2023-05-19T01:26:27.835Z,21.58
2023-05-19T01:29:21.043Z,20.05
2023-05-19T01:31:50.447Z,20.90
2023-05-19T01:34:19.309Z,21.48
2023-05-19T01:36:49.856Z,16.27
2023-05-19T01:39:17.268Z,20.75
2023-05-19T01:41:45.827Z,21.65
2023-05-19T01:44:13.173Z,18.10
2023-05-19T01:46:40.750Z,23.48
2023-05-19T01:49:09.041Z,18.52
2023-05-19T01:51:36.263Z,20.33
2023-05-19T01:54:03.420Z,22.77
2023-05-19T01:56:49.917Z,23.40
2023-05-19T02:00:15.709Z,18.10
2023-05-19T02:02:55.811Z,20.63
2023-05-19T02:05:31.311Z,19.25
2023-05-19T02:08:20.681Z,24.45
2023-05-19T02:10:56.211Z,23.15
2023-05-19T02:13:27.356Z,21.80
2023-05-19T02:16:02.508Z,20.92
2023-05-19T02:18:30.102Z,20.98
2023-05-19T02:20:57.153Z,22.40
2023-05-19T02:23:24.174Z,24.85
2023-05-19T02:25:51.504Z,27.80
2023-05-19T02:28:18.855Z,26.25
2023-05-19T02:30:46.006Z,21.48
2023-05-19T02:33:13.068Z,21.48
2023-05-19T02:35:40.120Z,19.75
2023-05-19T02:38:07.150Z,25.50
2023-05-19T02:40:34.320Z,24.55
2023-05-19T02:43:01.845Z,27.30
2023-05-19T02:45:29.275Z,25.10
2023-05-19T02:47:56.888Z,26.23
2023-05-19T02:50:23.917Z,25.85
2023-05-19T02:52:52.564Z,24.00
2023-05-19T02:55:19.858Z,22.88
2023-05-19T02:57:46.972Z,20.65
2023-05-19T03:00:14.934Z,24.75
2023-05-19T03:02:44.091Z,20.88
2023-05-19T03:05:11.452Z,23.02
2023-05-19T03:07:38.630Z,18.90
2023-05-19T03:10:06.843Z,17.50
2023-05-19T03:12:33.914Z,25.75
2023-05-19T03:15:01.494Z,17.85
2023-05-19T03:17:33.631Z,19.77
2023-05-19T03:20:01.688Z,24.33
2023-05-19T03:22:28.810Z,23.92
2023-05-19T03:24:55.940Z,21.45
2023-05-19T03:27:23.003Z,19.10
2023-05-19T03:29:50.776Z,22.88
2023-05-19T03:32:17.863Z,20.38
2023-05-19T03:34:44.941Z,15.70
2023-05-19T03:37:12.951Z,19.88
2023-05-19T03:39:40.008Z,24.17
2023-05-19T03:42:07.203Z,18.90
2023-05-19T03:44:34.367Z,19.27
2023-05-19T03:47:01.406Z,19.80
2023-05-19T03:49:28.465Z,18.77
2023-05-19T03:51:55.926Z,17.23
2023-05-19T03:54:23.267Z,18.17
2023-05-19T03:56:50.383Z,18.17
2023-05-19T03:59:17.448Z,17.48
2023-05-19T04:01:44.553Z,24.13
2023-05-19T04:04:11.635Z,21.15
2023-05-19T04:06:41.671Z,20.23
2023-05-19T04:09:14.191Z,19.20
2023-05-19T04:11:42.677Z,14.02
2023-05-19T04:14:10.048Z,17.00
2023-05-19T04:16:37.530Z,15.18
2023-05-19T04:19:04.696Z,16.30
2023-05-19T04:21:31.892Z,15.18
2023-05-19T04:24:00.079Z,14.65
2023-05-19T04:26:30.956Z,13.20
2023-05-19T04:28:58.187Z,14.77
2023-05-19T04:31:25.632Z,14.00
2023-05-19T04:33:53.520Z,13.93
2023-05-19T04:36:21.756Z,19.98
2023-05-19T04:38:49.034Z,12.00
2023-05-19T04:41:16.547Z,14.20
2023-05-19T04:43:44.629Z,12.80
2023-05-19T04:46:13.955Z,14.25
2023-05-19T04:48:41.398Z,11.18
2023-05-19T04:51:08.654Z,14.60
2023-05-19T04:53:36.611Z,12.70
2023-05-19T04:56:04.450Z,15.45
2023-05-19T04:58:31.623Z,13.02
2023-05-19T05:00:58.771Z,13.73
2023-05-19T05:03:27.387Z,13.52
2023-05-19T05:05:54.541Z,13.38
2023-05-19T05:08:25.488Z,10.90
2023-05-19T05:10:53.727Z,9.00
2023-05-19T05:13:24.072Z,12.65
2023-05-19T05:15:52.740Z,9.82
2023-05-19T05:18:20.577Z,11.25
2023-05-19T05:20:48.896Z,11.02
2023-05-19T05:23:16.775Z,11.10
2023-05-19T05:25:44.855Z,11.10
2023-05-19T05:28:12.060Z,12.93
2023-05-19T05:30:39.180Z,10.93
2023-05-19T05:33:06.622Z,13.48
2023-05-19T05:35:34.206Z,14.38
2023-05-19T05:38:02.799Z,11.88
2023-05-19T05:40:30.144Z,11.13
2023-05-19T05:42:59.071Z,11.48
2023-05-19T05:45:26.487Z,12.23
2023-05-19T05:47:53.890Z,9.80
2023-05-19T05:50:21.471Z,11.70
2023-05-19T05:52:50.966Z,10.60
2023-05-19T05:55:18.588Z,16.83
2023-05-19T05:57:45.656Z,12.60
2023-05-19T06:00:15.820Z,14.80
2023-05-19T06:02:47.401Z,16.10
2023-05-19T06:05:14.785Z,10.98
2023-05-19T06:07:42.066Z,11.02
2023-05-19T06:10:10.128Z,11.05
2023-05-19T06:12:40.619Z,11.25
2023-05-19T06:15:08.459Z,13.13
2023-05-19T06:17:36.210Z,13.40
2023-05-19T06:20:08.624Z,11.18
2023-05-19T06:22:36.245Z,11.85
2023-05-19T06:25:03.699Z,11.27
2023-05-19T06:27:32.563Z,10.30
2023-05-19T06:30:01.255Z,11.20
2023-05-19T06:32:29.840Z,10.85
2023-05-19T06:34:57.113Z,10.95
2023-05-19T06:37:24.565Z,13.85
2023-05-19T06:39:53.724Z,13.30
2023-05-19T06:42:22.667Z,10.70
2023-05-19T06:44:50.603Z,17.83
2023-05-19T06:47:18.300Z,13.55
2023-05-19T06:49:50.664Z,10.80
2023-05-19T06:52:18.094Z,14.05
2023-05-19T06:54:45.212Z,11.93
2023-05-19T06:57:12.257Z,11.95
2023-05-19T06:59:41.207Z,8.32
2023-05-19T07:02:08.529Z,12.10
2023-05-19T07:04:36.746Z,12.43
2023-05-19T07:07:04.104Z,12.15
2023-05-19T07:09:31.182Z,14.80
2023-05-19T07:11:58.370Z,12.77
2023-05-19T07:14:25.458Z,11.65
2023-05-19T07:16:52.727Z,9.15
2023-05-19T07:19:20.197Z,10.77
2023-05-19T07:21:48.097Z,11.88
2023-05-19T07:24:15.170Z,8.35
2023-05-19T07:26:42.892Z,11.43
2023-05-19T07:29:09.946Z,10.88
2023-05-19T07:31:37.047Z,7.80
2023-05-19T07:34:04.409Z,11.82
2023-05-19T07:36:31.753Z,8.95
2023-05-19T07:38:58.908Z,12.63
2023-05-19T07:41:26.333Z,13.02
2023-05-19T07:43:53.392Z,12.88
2023-05-19T07:46:22.154Z,15.27
2023-05-19T07:48:49.444Z,17.48
2023-05-19T07:51:16.551Z,17.55
2023-05-19T07:53:43.591Z,8.40
2023-05-19T07:56:10.874Z,8.65
2023-05-19T07:58:38.038Z,11.57
2023-05-19T08:01:05.232Z,8.13
2023-05-19T08:03:32.527Z,11.18
2023-05-19T08:05:59.853Z,9.32
2023-05-19T08:08:27.003Z,10.52
2023-05-19T08:10:54.032Z,9.63
2023-05-19T08:13:21.858Z,8.93
2023-05-19T08:15:48.956Z,14.55
2023-05-19T08:18:16.130Z,15.10
2023-05-19T08:20:43.167Z,11.18
2023-05-19T08:23:10.208Z,9.23
2023-05-19T08:25:37.264Z,10.52
2023-05-19T08:28:04.474Z,14.25
2023-05-19T08:30:31.738Z,10.20
2023-05-19T08:32:59.038Z,13.38
2023-05-19T08:35:26.244Z,9.55
2023-05-19T08:37:53.587Z,9.38
2023-05-19T08:40:21.120Z,9.77
2023-05-19T08:42:48.471Z,7.45
2023-05-19T08:45:16.131Z,9.55
2023-05-19T08:47:49.069Z,9.43
2023-05-19T08:50:30.661Z,14.48
2023-05-19T08:53:32.324Z,8.93
2023-05-19T08:56:11.051Z,12.18
2023-05-19T08:58:43.934Z,11.20
2023-05-19T09:01:16.782Z,8.70
2023-05-19T09:03:50.521Z,10.50
2023-05-19T09:06:18.146Z,9.25
2023-05-19T09:08:45.365Z,10.15
2023-05-19T09:11:13.170Z,8.85
2023-05-19T09:13:40.388Z,8.55
2023-05-19T09:16:08.329Z,9.07
2023-05-19T09:18:40.788Z,13.30
2023-05-19T09:21:10.248Z,7.25
2023-05-19T09:23:37.674Z,8.73
2023-05-19T09:26:08.822Z,14.30
2023-05-19T09:28:37.851Z,14.38
2023-05-19T09:31:12.040Z,7.75
2023-05-19T09:33:45.991Z,9.88
2023-05-19T09:36:13.818Z,9.10
2023-05-19T09:38:41.478Z,13.40
2023-05-19T09:41:09.461Z,9.68
2023-05-19T09:43:36.941Z,7.78
2023-05-19T09:46:08.127Z,9.65
2023-05-19T09:48:36.607Z,8.82
2023-05-19T09:51:07.729Z,7.05
2023-05-19T09:53:35.321Z,9.82
2023-05-19T09:56:04.037Z,13.00
2023-05-19T09:58:35.422Z,10.07
2023-05-19T10:01:04.671Z,10.98
2023-05-19T10:03:35.152Z,11.20
2023-05-19T10:06:04.592Z,10.07
2023-05-19T10:08:34.261Z,13.80
2023-05-19T10:11:01.944Z,7.80
2023-05-19T10:13:30.937Z,6.85
2023-05-19T10:15:59.963Z,11.00
2023-05-19T10:18:29.941Z,10.32
2023-05-19T10:20:59.010Z,7.80
2023-05-19T10:23:26.955Z,7.05
2023-05-19T10:25:58.598Z,9.82
2023-05-19T10:28:35.084Z,10.13
2023-05-19T10:31:06.923Z,7.03
2023-05-19T10:34:22.194Z,9.48
2023-05-19T10:37:10.551Z,5.53
2023-05-19T10:39:44.441Z,7.75
2023-05-19T10:42:26.298Z,7.40
2023-05-19T10:45:17.560Z,4.30
2023-05-19T10:47:45.673Z,6.18
2023-05-19T10:50:13.803Z,9.40
2023-05-19T10:52:41.374Z,6.90
2023-05-19T10:55:10.280Z,6.78
2023-05-19T10:57:37.717Z,5.60
2023-05-19T11:00:29.510Z,6.90
2023-05-19T11:03:13.761Z,7.60
2023-05-19T11:05:41.417Z,4.97
2023-05-19T11:08:08.630Z,6.40
2023-05-19T11:10:35.818Z,5.53
2023-05-19T11:13:06.631Z,11.93
2023-05-19T11:15:37.392Z,5.97
2023-05-19T11:18:05.214Z,5.13
2023-05-19T11:20:35.062Z,8.98
2023-05-19T11:23:11.076Z,3.90
2023-05-19T11:25:49.738Z,6.20
2023-05-19T11:28:20.573Z,3.42
2023-05-19T11:30:52.141Z,4.85
2023-05-19T11:33:21.629Z,5.75
2023-05-19T11:35:51.460Z,5.65
2023-05-19T11:38:23.622Z,5.32
2023-05-19T11:40:54.139Z,5.15
2023-05-19T11:43:25.424Z,5.40
2023-05-19T11:45:54.545Z,3.60
2023-05-19T11:48:22.619Z,6.55
2023-05-19T11:50:53.024Z,4.38
2023-05-19T11:53:21.033Z,8.07
2023-05-19T11:55:49.411Z,4.95
2023-05-19T11:58:17.570Z,3.40
2023-05-19T12:00:47.472Z,1.88
2023-05-19T12:03:15.234Z,4.70
2023-05-19T12:05:48.748Z,10.95
2023-05-19T12:08:19.156Z,5.22
2023-05-19T12:10:52.137Z,3.35
2023-05-19T12:13:21.007Z,7.28
2023-05-19T12:15:50.357Z,4.15
2023-05-19T12:18:17.480Z,3.10
2023-05-19T12:20:44.904Z,4.53
2023-05-19T12:23:12.677Z,3.80
2023-05-19T12:25:40.088Z,3.25
2023-05-19T12:28:07.819Z,7.30
2023-05-19T12:30:35.518Z,5.10
2023-05-19T12:33:03.409Z,3.08
2023-05-19T12:35:36.103Z,4.38
2023-05-19T12:38:05.418Z,6.55
2023-05-19T12:40:37.747Z,5.47
2023-05-19T12:43:06.790Z,5.65
2023-05-19T12:45:37.451Z,9.18
2023-05-19T12:48:16.603Z,6.00
2023-05-19T12:50:45.150Z,3.38
2023-05-19T12:53:14.621Z,4.93
2023-05-19T12:55:44.332Z,8.27
2023-05-19T12:58:12.893Z,4.75
2023-05-19T13:00:47.354Z,5.20
2023-05-19T13:03:22.307Z,5.25
2023-05-19T13:05:51.345Z,5.47
2023-05-19T13:08:21.670Z,4.55
2023-05-19T13:10:49.690Z,6.75
2023-05-19T13:13:17.645Z,5.72
2023-05-19T13:15:49.117Z,4.72
2023-05-19T13:18:17.433Z,5.25
2023-05-19T13:20:47.104Z,3.55
2023-05-19T13:23:14.975Z,5.75
2023-05-19T13:25:42.987Z,4.53
2023-05-19T13:28:10.957Z,5.93
2023-05-19T13:30:40.861Z,3.08
2023-05-19T13:33:08.280Z,11.13
2023-05-19T13:35:38.852Z,4.43
2023-05-19T13:38:10.597Z,7.55
2023-05-19T13:40:39.493Z,4.60
2023-05-19T13:43:07.364Z,6.65
2023-05-19T13:45:34.753Z,5.80
2023-05-19T13:48:01.902Z,7.55
2023-05-19T13:50:29.251Z,5.35
2023-05-19T13:52:56.367Z,9.20
2023-05-19T13:55:23.638Z,5.95
2023-05-19T13:57:50.993Z,4.18
2023-05-19T14:00:19.352Z,7.60
2023-05-19T14:02:46.714Z,5.80
2023-05-19T14:05:13.878Z,6.38
2023-05-19T14:07:41.361Z,6.63
2023-05-19T14:10:09.337Z,6.45
2023-05-19T14:12:47.835Z,4.75
2023-05-19T14:15:23.855Z,10.05
2023-05-19T14:17:51.059Z,6.13
2023-05-19T14:20:18.228Z,8.43
2023-05-19T14:22:45.354Z,7.93
2023-05-19T14:25:12.463Z,13.25
2023-05-19T14:27:42.698Z,4.50
2023-05-19T14:30:10.501Z,5.15
2023-05-19T14:32:37.631Z,9.68
2023-05-19T14:35:05.484Z,7.45
2023-05-19T14:37:32.671Z,6.57
2023-05-19T14:40:00.027Z,6.45
2023-05-19T14:42:27.144Z,8.35
2023-05-19T14:44:54.309Z,6.57
2023-05-19T14:47:21.506Z,5.35
2023-05-19T14:49:48.702Z,5.90
2023-05-19T14:52:15.783Z,5.78
2023-05-19T14:54:42.855Z,5.95
2023-05-19T14:57:09.923Z,12.18
2023-05-19T14:59:40.066Z,5.47
2023-05-19T15:02:07.662Z,5.95
2023-05-19T15:04:34.758Z,6.18
2023-05-19T15:09:32.040Z,5.97
2023-05-19T15:12:01.207Z,6.55
2023-05-19T15:14:30.529Z,7.05
2023-05-19T15:16:58.544Z,5.85
2023-05-19T15:19:26.073Z,7.72
2023-05-19T15:21:53.512Z,6.90
2023-05-19T15:24:20.733Z,5.43
2023-05-19T15:26:47.987Z,5.88
2023-05-19T15:29:15.108Z,5.50
2023-05-19T15:31:42.321Z,5.30
2023-05-19T15:34:09.500Z,8.93
2023-05-19T15:36:36.589Z,7.95
2023-05-19T15:39:03.831Z,9.00
2023-05-19T15:41:30.975Z,9.23
2023-05-19T15:44:00.329Z,4.18
2023-05-19T15:46:31.065Z,6.20
2023-05-19T15:48:58.365Z,8.10
2023-05-19T15:51:26.307Z,4.15
2023-05-19T15:53:53.554Z,6.00
2023-05-19T15:56:21.563Z,6.28
2023-05-19T15:58:48.752Z,5.68
2023-05-19T16:01:16.803Z,4.63
2023-05-19T16:03:45.385Z,8.93
2023-05-19T16:06:12.683Z,8.20
2023-05-19T16:08:39.906Z,5.00
2023-05-19T16:11:07.115Z,10.50
2023-05-19T16:13:34.459Z,7.00
2023-05-19T16:16:02.190Z,4.65
2023-05-19T16:18:29.602Z,6.75
2023-05-19T16:20:56.731Z,5.22
2023-05-19T16:23:24.798Z,4.18
2023-05-19T16:25:52.327Z,3.72
2023-05-19T16:28:19.522Z,2.55
2023-05-19T16:30:46.788Z,4.40
2023-05-19T16:33:13.978Z,5.18
2023-05-19T16:35:41.068Z,5.65
2023-05-19T16:38:08.199Z,4.57
2023-05-19T16:40:35.722Z,3.00
2023-05-19T16:43:03.090Z,8.98
2023-05-19T16:45:30.146Z,3.47
2023-05-19T16:47:57.321Z,3.08
2023-05-19T16:50:24.792Z,9.52
2023-05-19T16:52:51.862Z,4.28
2023-05-19T16:55:20.097Z,10.25
2023-05-19T16:57:47.431Z,5.70
2023-05-19T17:00:15.509Z,4.75
2023-05-19T17:02:42.661Z,3.03
2023-05-19T17:05:09.919Z,7.38
2023-05-19T17:07:37.006Z,4.68
2023-05-19T17:10:04.545Z,5.57
2023-05-19T17:12:31.654Z,3.28
2023-05-19T17:14:58.735Z,5.53
2023-05-19T17:17:25.919Z,4.80
2023-05-19T17:19:53.048Z,6.35
2023-05-19T17:22:20.152Z,4.43
2023-05-19T17:24:47.336Z,4.30
2023-05-19T17:27:15.105Z,5.53
2023-05-19T17:29:42.245Z,6.78
2023-05-19T17:32:09.484Z,7.22
2023-05-19T17:34:36.695Z,6.18
2023-05-19T17:37:04.057Z,5.35
2023-05-19T17:39:31.209Z,3.08
2023-05-19T17:41:58.438Z,2.40
2023-05-19T17:44:25.668Z,4.28
2023-05-19T17:46:53.060Z,3.72
2023-05-19T17:49:23.066Z,3.72
2023-05-19T17:51:50.508Z,2.95
2023-05-19T17:54:18.029Z,8.57
2023-05-19T17:56:45.902Z,4.15
2023-05-19T17:59:13.513Z,2.90
2023-05-19T18:01:41.373Z,4.90
2023-05-19T18:04:09.622Z,4.07
2023-05-19T18:06:44.701Z,4.70
2023-05-19T18:09:15.760Z,4.68
2023-05-19T18:11:43.144Z,7.43
2023-05-19T18:14:10.870Z,4.15
2023-05-19T18:16:38.744Z,3.47
2023-05-19T18:19:06.748Z,6.20
2023-05-19T18:21:34.814Z,9.50
2023-05-19T18:24:04.786Z,4.13
2023-05-19T18:26:34.088Z,6.03
2023-05-19T18:29:05.367Z,3.25
2023-05-19T18:31:33.349Z,6.18
2023-05-19T18:34:01.467Z,12.48
2023-05-19T18:36:29.730Z,4.88
2023-05-19T18:38:59.833Z,5.47
2023-05-19T18:41:28.081Z,5.68
2023-05-19T18:43:56.058Z,6.20
2023-05-19T18:46:24.120Z,6.93
2023-05-19T18:48:52.140Z,8.25
2023-05-19T18:51:21.839Z,7.18
2023-05-19T18:53:50.691Z,8.70
2023-05-19T18:56:31.733Z,3.85
2023-05-19T18:59:00.342Z,4.10
2023-05-19T19:01:29.015Z,4.22
2023-05-19T19:03:57.310Z,4.90
2023-05-19T19:06:25.227Z,7.57
2023-05-19T19:08:53.228Z,7.72
2023-05-19T19:11:22.317Z,4.22
2023-05-19T19:13:56.039Z,10.25
2023-05-19T19:16:24.103Z,5.93
2023-05-19T19:18:53.436Z,4.38
2023-05-19T19:21:24.551Z,5.35
2023-05-19T19:23:56.709Z,4.75
2023-05-19T19:26:28.008Z,4.25
2023-05-19T19:28:57.474Z,6.90
2023-05-19T19:31:31.714Z,9.52
2023-05-19T19:34:03.704Z,4.93
2023-05-19T19:36:32.690Z,6.75
2023-05-19T19:39:00.913Z,9.68
2023-05-19T19:41:30.381Z,9.93
2023-05-19T19:44:01.113Z,5.82
2023-05-19T19:46:29.224Z,5.05
2023-05-19T19:49:00.870Z,6.70
2023-05-19T19:51:29.590Z,5.75
2023-05-19T19:53:57.796Z,6.55
2023-05-19T19:56:28.013Z,6.53
2023-05-19T19:58:59.130Z,5.40
2023-05-19T20:01:28.222Z,14.63
2023-05-19T20:03:58.041Z,7.15
2023-05-19T20:06:26.570Z,16.20
2023-05-19T20:08:54.690Z,9.30
2023-05-19T20:11:24.869Z,11.73
2023-05-19T20:13:56.014Z,10.38
2023-05-19T20:16:24.747Z,17.63
2023-05-19T20:18:52.959Z,12.48
2023-05-19T20:21:21.223Z,11.95
2023-05-19T20:23:51.024Z,12.20
2023-05-19T20:26:19.155Z,9.93
2023-05-19T20:28:47.344Z,11.27
2023-05-19T20:31:15.420Z,13.27
2023-05-19T20:33:43.449Z,9.13
2023-05-19T20:36:11.688Z,11.40
2023-05-19T20:38:39.643Z,8.18
2023-05-19T20:41:08.001Z,9.23
2023-05-19T20:43:35.846Z,8.40
2023-05-19T20:46:04.735Z,11.27
2023-05-19T20:48:32.539Z,10.95
2023-05-19T20:51:00.304Z,15.57
2023-05-19T20:53:28.028Z,11.60
2023-05-19T20:55:55.605Z,16.55
2023-05-19T20:58:23.205Z,13.95
2023-05-19T21:00:56.950Z,11.30
2023-05-19T21:03:25.370Z,16.30
2023-05-19T21:05:53.528Z,16.98
2023-05-19T21:08:20.819Z,13.00
2023-05-19T21:10:48.118Z,12.13
2023-05-19T21:13:15.353Z,14.18
2023-05-19T21:15:42.387Z,11.18
2023-05-19T21:18:11.579Z,15.80
2023-05-19T21:20:39.631Z,14.45
2023-05-19T21:23:06.735Z,15.32
2023-05-19T21:25:33.859Z,12.90
2023-05-19T21:28:01.104Z,15.40
2023-05-19T21:30:28.544Z,13.32
2023-05-19T21:32:55.721Z,14.80
2023-05-19T21:35:22.844Z,15.32
2023-05-19T21:37:49.916Z,14.40
2023-05-19T21:40:16.956Z,16.60
2023-05-19T21:42:44.039Z,14.02
2023-05-19T21:45:11.638Z,14.13
2023-05-19T21:47:38.921Z,16.65
2023-05-19T21:50:07.122Z,14.32
2023-05-19T21:52:36.094Z,14.02
2023-05-19T21:55:03.495Z,14.88
2023-05-19T21:57:30.656Z,18.02
2023-05-19T21:59:57.702Z,15.95
2023-05-19T22:02:25.032Z,15.25
2023-05-19T22:04:52.249Z,17.75
2023-05-19T22:07:26.649Z,15.15
2023-05-19T22:09:54.161Z,16.98
2023-05-19T22:12:21.551Z,14.40
2023-05-19T22:14:48.732Z,14.13
2023-05-19T22:17:15.834Z,14.20
2023-05-19T22:19:42.889Z,17.60
2023-05-19T22:22:14.146Z,17.85
2023-05-19T22:24:41.862Z,19.67
2023-05-19T22:27:09.007Z,15.25
2023-05-19T22:29:38.677Z,13.95
2023-05-19T22:32:11.696Z,15.23
2023-05-19T22:34:39.279Z,17.63
2023-05-19T22:37:06.630Z,22.63
2023-05-19T22:39:33.718Z,15.90
2023-05-19T22:42:01.297Z,16.92
2023-05-19T22:44:28.587Z,18.38
2023-05-19T22:46:55.803Z,15.77
2023-05-19T22:49:27.406Z,21.23
2023-05-19T22:51:54.565Z,21.10
2023-05-19T22:54:21.599Z,20.30
2023-05-19T22:56:49.049Z,17.60
2023-05-19T22:59:18.017Z,22.88
2023-05-19T23:01:46.636Z,20.67
2023-05-19T23:04:14.251Z,17.60
2023-05-19T23:06:41.452Z,17.05
2023-05-19T23:09:08.469Z,18.20
2023-05-19T23:11:36.020Z,18.52
2023-05-19T23:14:03.147Z,21.40
2023-05-19T23:16:30.222Z,19.92
2023-05-19T23:18:57.370Z,18.77
2023-05-19T23:21:24.497Z,19.23
2023-05-19T23:23:51.964Z,22.48
2023-05-19T23:26:19.030Z,19.25
2023-05-19T23:29:04.538Z,20.67
2023-05-19T23:31:31.645Z,19.30
2023-05-19T23:34:03.138Z,27.27
2023-05-19T23:36:31.426Z,21.65
2023-05-19T23:39:00.128Z,24.88
2023-05-19T23:41:27.330Z,21.65
2023-05-19T23:43:54.478Z,22.13
2023-05-19T23:46:21.633Z,21.98
2023-05-19T23:48:48.911Z,27.42
2023-05-19T23:51:15.957Z,24.73
2023-05-19T23:53:43.047Z,23.65
2023-05-19T23:56:11.326Z,23.80
2023-05-19T23:58:38.546Z,27.77
